Time;durP1;ratioP1;P1;durP2;ratioP2;P2;SDS_P1;SDS_P2;PMS_P1;PMS_P2;Temp;Humidity;BMP_temperature;BMP_pressure;BME280_temperature;BME280_humidity;BME280_pressure;Samples;Min_cycle;Max_cycle;Signal;HPM_P1;HPM_P2
2021/11/11 00:00:25;;;;;;;;;;;3.90;99.90;;;;;;5066760;28;20360;-77
2021/11/11 00:02:52;;;;;;;;;;;3.90;99.90;;;;;;5068013;28;19930;-77
2021/11/11 00:05:19;;;;;;;;;;;4.00;99.90;;;;;;5064479;28;19940;-79
2021/11/11 00:07:47;;;;;;;;;;;4.00;99.90;;;;;;5066970;28;20390;-77
2021/11/11 00:10:15;;;;;;;;;;;4.00;99.90;;;;;;5063269;28;19924;-77
2021/11/11 00:12:42;;;;;;;;;;;4.00;99.90;;;;;;5068187;28;20011;-78
2021/11/11 00:15:10;;;;;;;;;;;4.00;99.90;;;;;;5063143;28;19941;-78
2021/11/11 00:17:38;;;;;;;;;;;4.00;99.90;;;;;;5069484;28;20318;-79
2021/11/11 00:20:05;;;;;;;;;;;4.00;99.90;;;;;;5064610;28;19928;-78
2021/11/11 00:22:32;;;;;;;;;;;4.00;99.90;;;;;;5066485;28;19931;-77
2021/11/11 00:25:00;;;;;;;;;;;4.00;99.90;;;;;;5066098;28;19924;-77
2021/11/11 00:27:26;;;;;;;;;;;4.00;99.90;;;;;;5071440;28;20375;-78
2021/11/11 00:29:53;;;;;;;;;;;4.10;99.90;;;;;;5068348;28;19931;-78
2021/11/11 00:32:20;;;;;;;;;;;4.10;99.90;;;;;;5068635;28;19924;-78
2021/11/11 00:34:51;;;;;;;;;;;4.00;99.90;;;;;;5069073;28;20031;-75
2021/11/11 00:37:18;;;;;;;;;;;4.10;99.90;;;;;;5067530;28;19999;-76
2021/11/11 00:39:45;;;;;;;;;;;4.10;99.90;;;;;;5065623;28;19939;-75
2021/11/11 00:42:13;;;;;;;;;;;4.20;99.90;;;;;;5070278;28;19925;-76
2021/11/11 00:44:40;;;;;;;;;;;4.20;99.90;;;;;;5065375;28;22118;-76
2021/11/11 00:47:06;;;;;;;;;;;4.20;99.90;;;;;;5068523;28;19924;-76
2021/11/11 00:49:33;;;;;;;;;;;4.30;99.90;;;;;;5065279;28;19925;-76
2021/11/11 00:52:00;;;;;;;;;;;4.40;99.90;;;;;;5060423;28;19979;-76
2021/11/11 00:54:26;;;;;;;;;;;4.50;99.90;;;;;;5066452;28;19925;-76
2021/11/11 00:56:53;;;;;;;;;;;4.50;99.90;;;;;;5060283;28;19925;-75
2021/11/11 00:59:21;;;;;;;;;;;4.50;99.90;;;;;;5067863;28;19924;-77
2021/11/11 01:01:48;;;;;;;;;;;4.50;99.90;;;;;;5063014;28;20023;-76
2021/11/11 01:04:14;;;;;;;;;;;4.60;99.90;;;;;;5066151;28;19924;-76
2021/11/11 01:06:41;;;;;;;;;;;4.50;99.90;;;;;;5064016;28;19932;-76
2021/11/11 01:09:08;;;;;;;;;;;4.50;99.90;;;;;;5067532;28;19931;-76
2021/11/11 01:11:34;;;;;;;;;;;4.50;99.90;;;;;;5063783;28;19971;-76
2021/11/11 01:14:02;;;;;;;;;;;4.50;99.90;;;;;;5069018;28;19928;-76
2021/11/11 01:16:30;;;;;;;;;;;4.50;99.90;;;;;;5064269;28;19986;-76
2021/11/11 01:18:57;;;;;;;;;;;4.50;99.90;;;;;;5065537;28;20295;-76
2021/11/11 01:21:24;;;;;;;;;;;4.50;99.90;;;;;;5064888;28;19936;-76
2021/11/11 01:23:51;;;;;;;;;;;4.40;99.90;;;;;;5063902;28;19939;-76
2021/11/11 01:26:17;;;;;;;;;;;4.40;99.90;;;;;;5069695;28;20015;-75
2021/11/11 01:28:44;;;;;;;;;;;4.40;99.90;;;;;;5063880;28;19929;-75
2021/11/11 01:31:11;;;;;;;;;;;4.40;99.90;;;;;;5065934;28;19932;-75
2021/11/11 01:33:39;;;;;;;;;;;4.40;99.90;;;;;;5065565;28;19931;-75
2021/11/11 01:36:05;;;;;;;;;;;4.40;99.90;;;;;;5070375;28;19932;-75
2021/11/11 01:38:32;;;;;;;;;;;4.50;99.90;;;;;;5067744;28;19929;-75
2021/11/11 01:40:59;;;;;;;;;;;4.60;99.90;;;;;;5072287;28;19931;-74
2021/11/11 01:43:25;;;;;;;;;;;4.60;99.90;;;;;;5069171;28;19947;-76
2021/11/11 01:45:52;;;;;;;;;;;4.70;99.90;;;;;;5071856;28;20306;-75
2021/11/11 01:48:19;;;;;;;;;;;4.70;99.90;;;;;;5068979;28;19931;-76
2021/11/11 01:50:47;;;;;;;;;;;4.80;99.90;;;;;;5073992;28;19924;-75
2021/11/11 01:53:14;;;;;;;;;;;4.90;99.90;;;;;;5066483;28;19928;-76
2021/11/11 01:55:42;;;;;;;;;;;4.80;99.90;;;;;;5072565;28;20397;-75
2021/11/11 01:58:12;;;;;;;;;;;4.90;99.90;;;;;;5067993;28;19931;-76
2021/11/11 02:00:42;;;;;;;;;;;4.90;99.90;;;;;;5068625;28;20043;-75
2021/11/11 02:03:09;;;;;;;;;;;5.00;99.90;;;;;;5072121;28;19924;-76
2021/11/11 02:05:36;;;;;;;;;;;5.00;99.90;;;;;;5071831;28;20021;-76
2021/11/11 02:08:05;;;;;;;;;;;5.00;99.90;;;;;;5068899;28;19925;-75
2021/11/11 02:10:33;;;;;;;;;;;5.00;99.90;;;;;;5066992;28;20011;-75
2021/11/11 02:12:59;;;;;;;;;;;5.10;99.90;;;;;;5069971;28;19964;-75
2021/11/11 02:15:26;;;;;;;;;;;5.10;99.90;;;;;;5070512;28;20275;-75
2021/11/11 02:17:53;;;;;;;;;;;5.10;99.90;;;;;;5072797;28;19933;-74
2021/11/11 02:20:22;;;;;;;;;;;5.10;99.90;;;;;;5063564;28;20310;-75
2021/11/11 02:22:48;;;;;;;;;;;5.10;99.90;;;;;;5068741;28;19947;-75
2021/11/11 02:25:16;;;;;;;;;;;5.20;99.90;;;;;;5069519;28;19939;-76
2021/11/11 02:27:44;;;;;;;;;;;5.20;99.90;;;;;;5067835;28;19947;-76
2021/11/11 02:30:11;;;;;;;;;;;5.20;99.90;;;;;;5066934;28;19926;-76
2021/11/11 02:32:38;;;;;;;;;;;5.30;99.90;;;;;;5069913;28;19925;-77
2021/11/11 02:35:06;;;;;;;;;;;5.40;99.90;;;;;;5069877;28;19924;-77
2021/11/11 02:37:34;;;;;;;;;;;5.40;99.90;;;;;;5068809;28;19931;-76
2021/11/11 02:40:04;;;;;;;;;;;5.40;99.90;;;;;;5066536;28;19932;-77
2021/11/11 02:42:31;;;;;;;;;;;5.40;99.90;;;;;;5067464;28;19925;-77
2021/11/11 02:45:01;;;;;;;;;;;5.40;99.90;;;;;;5068326;28;19925;-76
2021/11/11 02:47:28;;;;;;;;;;;5.50;99.90;;;;;;5060762;28;19925;-76
2021/11/11 02:49:54;;;;;;;;;;;5.50;99.90;;;;;;5065150;28;19933;-74
2021/11/11 02:52:21;;;;;;;;;;;5.50;99.90;;;;;;5067432;28;20418;-75
2021/11/11 02:54:49;;;;;;;;;;;5.50;99.90;;;;;;5066895;28;19933;-74
2021/11/11 02:57:24;;;;;;;;;;;5.60;99.90;;;;;;5071540;28;20007;-74
2021/11/11 02:59:53;;;;;;;;;;;5.60;99.90;;;;;;5068606;28;19932;-74
2021/11/11 03:02:21;;;;;;;;;;;5.70;99.90;;;;;;5071646;28;19929;-75
2021/11/11 03:04:48;;;;;;;;;;;5.70;99.90;;;;;;5070711;28;19947;-74
2021/11/11 03:07:15;;;;;;;;;;;5.70;99.90;;;;;;5072512;28;19928;-74
2021/11/11 03:09:42;;;;;;;;;;;5.70;99.90;;;;;;5064067;28;19932;-74
2021/11/11 03:12:10;;;;;;;;;;;5.70;99.90;;;;;;5066016;28;19924;-74
2021/11/11 03:14:38;;;;;;;;;;;5.70;99.90;;;;;;5071208;28;20387;-74
2021/11/11 03:17:05;;;;;;;;;;;5.70;99.90;;;;;;5071925;28;20005;-75
2021/11/11 03:19:32;;;;;;;;;;;5.70;99.90;;;;;;5071658;28;19947;-76
2021/11/11 03:21:59;;;;;;;;;;;5.80;99.90;;;;;;5070829;28;20394;-74
2021/11/11 03:24:26;;;;;;;;;;;5.70;99.90;;;;;;5067899;28;19947;-75
2021/11/11 03:26:52;;;;;;;;;;;5.80;99.90;;;;;;5072289;28;20291;-75
2021/11/11 03:29:20;;;;;;;;;;;5.80;99.90;;;;;;5072163;28;20770;-76
2021/11/11 03:31:47;;;;;;;;;;;5.80;99.90;;;;;;5070857;28;20268;-75
2021/11/11 03:34:14;;;;;;;;;;;5.90;99.90;;;;;;5070680;28;20404;-74
2021/11/11 03:36:40;;;;;;;;;;;5.80;99.90;;;;;;5065502;28;19930;-74
2021/11/11 03:39:07;;;;;;;;;;;5.90;99.90;;;;;;5067819;28;19939;-75
2021/11/11 03:41:34;;;;;;;;;;;5.90;99.90;;;;;;5070601;28;19931;-74
2021/11/11 03:44:01;;;;;;;;;;;5.90;99.90;;;;;;5070616;28;19935;-75
2021/11/11 03:46:29;;;;;;;;;;;5.90;99.90;;;;;;5073279;28;19924;-75
2021/11/11 03:48:55;;;;;;;;;;;5.90;99.90;;;;;;5073019;28;19933;-75
2021/11/11 03:51:22;;;;;;;;;;;5.90;99.90;;;;;;5071946;28;19924;-75
2021/11/11 03:53:49;;;;;;;;;;;5.90;99.90;;;;;;5071068;28;19981;-75
2021/11/11 03:56:16;;;;;;;;;;;6.00;99.90;;;;;;5071226;28;20390;-75
2021/11/11 03:58:45;;;;;;;;;;;6.00;99.90;;;;;;5070819;28;19931;-74
2021/11/11 04:01:11;;;;;;;;;;;6.00;99.90;;;;;;5070897;28;19925;-74
2021/11/11 04:03:39;;;;;;;;;;;6.00;99.90;;;;;;5072715;28;20268;-75
2021/11/11 04:06:06;;;;;;;;;;;6.00;99.90;;;;;;5072571;28;19935;-74
2021/11/11 04:08:33;;;;;;;;;;;6.00;99.90;;;;;;5068698;28;20012;-74
2021/11/11 04:11:00;;;;;;;;;;;6.00;99.90;;;;;;5071141;28;20303;-74
2021/11/11 04:13:28;;;;;;;;;;;6.00;99.90;;;;;;5068462;28;19925;-74
2021/11/11 04:15:55;;;;;;;;;;;6.00;99.90;;;;;;5072962;28;19931;-74
2021/11/11 04:18:22;;;;;;;;;;;6.00;99.90;;;;;;5064483;28;19925;-74
2021/11/11 04:20:52;;;;;;;;;;;6.00;99.90;;;;;;5070226;28;20015;-75
2021/11/11 04:23:19;;;;;;;;;;;6.00;99.90;;;;;;5067448;28;19924;-76
2021/11/11 04:25:52;;;;;;;;;;;6.00;99.90;;;;;;5061496;28;19943;-74
2021/11/11 04:28:22;;;;;;;;;;;6.00;99.90;;;;;;5069441;28;19970;-74
2021/11/11 04:30:52;;;;;;;;;;;6.00;99.90;;;;;;5068831;28;19924;-75
2021/11/11 04:33:20;;;;;;;;;;;6.00;99.90;;;;;;5066715;28;19972;-75
2021/11/11 04:35:51;;;;;;;;;;;6.00;99.90;;;;;;5063016;28;19968;-75
2021/11/11 04:38:28;;;;;;;;;;;6.00;99.90;;;;;;5068706;28;19932;-74
2021/11/11 04:41:12;;;;;;;;;;;6.10;99.90;;;;;;5062975;28;19924;-74
2021/11/11 04:43:54;;;;;;;;;;;6.00;99.90;;;;;;5067445;28;19931;-74
2021/11/11 04:52:10;;;;;;;;;;;6.00;99.90;;;;;;5063755;28;19931;-74
2021/11/11 05:00:23;;;;;;;;;;;6.10;99.90;;;;;;5046504;28;19928;-75
2021/11/11 05:03:00;;;;;;;;;;;6.10;99.90;;;;;;5069068;28;19931;-75
2021/11/11 05:05:31;;;;;;;;;;;6.10;99.90;;;;;;5065177;28;19925;-76
2021/11/11 05:07:58;;;;;;;;;;;6.10;99.90;;;;;;5069213;28;20268;-75
2021/11/11 05:10:26;;;;;;;;;;;6.10;99.90;;;;;;5067666;28;19924;-75
2021/11/11 05:12:54;;;;;;;;;;;6.10;99.90;;;;;;5069929;28;20376;-75
2021/11/11 05:15:21;;;;;;;;;;;6.20;99.90;;;;;;5066488;28;20338;-75
2021/11/11 05:17:48;;;;;;;;;;;6.20;99.90;;;;;;5068862;28;19930;-75
2021/11/11 05:20:15;;;;;;;;;;;6.10;99.90;;;;;;5066494;28;19924;-75
2021/11/11 05:22:42;;;;;;;;;;;6.10;99.90;;;;;;5059829;28;19936;-75
2021/11/11 05:25:09;;;;;;;;;;;6.10;99.90;;;;;;5068168;28;19925;-80
2021/11/11 05:27:38;;;;;;;;;;;6.10;99.90;;;;;;5076782;28;20039;-76
2021/11/11 05:30:05;;;;;;;;;;;6.10;99.90;;;;;;5070660;28;19931;-74
2021/11/11 05:32:33;;;;;;;;;;;6.10;99.90;;;;;;5074837;28;19930;-75
2021/11/11 05:35:00;;;;;;;;;;;6.10;99.90;;;;;;5069181;28;19925;-75
2021/11/11 05:37:27;;;;;;;;;;;6.10;99.90;;;;;;5075173;28;19931;-75
2021/11/11 05:39:54;;;;;;;;;;;6.10;99.90;;;;;;5073549;28;19925;-75
2021/11/11 05:42:20;;;;;;;;;;;6.10;99.90;;;;;;5072800;28;19928;-74
2021/11/11 05:44:48;;;;;;;;;;;6.10;99.90;;;;;;5070516;28;19924;-74
2021/11/11 05:47:15;;;;;;;;;;;6.10;99.90;;;;;;5067707;28;19924;-75
2021/11/11 05:49:42;;;;;;;;;;;6.10;99.90;;;;;;5068288;28;19930;-74
2021/11/11 05:52:09;;;;;;;;;;;6.10;99.90;;;;;;5069940;28;19924;-74
2021/11/11 05:54:37;;;;;;;;;;;6.20;99.90;;;;;;5070371;28;20015;-75
2021/11/11 05:57:04;;;;;;;;;;;6.20;99.90;;;;;;5070835;28;19925;-76
2021/11/11 05:59:31;;;;;;;;;;;6.30;99.90;;;;;;5070818;28;19931;-76
2021/11/11 06:01:59;;;;;;;;;;;6.30;99.90;;;;;;5071569;28;19929;-75
2021/11/11 06:04:26;;;;;;;;;;;6.30;99.90;;;;;;5069970;28;19930;-74
2021/11/11 06:06:52;;;;;;;;;;;6.30;99.90;;;;;;5068790;28;19924;-74
2021/11/11 06:09:19;;;;;;;;;;;6.30;99.90;;;;;;5060863;28;19931;-75
2021/11/11 06:11:45;;;;;;;;;;;6.30;99.90;;;;;;5067468;28;19924;-74
2021/11/11 06:14:12;;;;;;;;;;;6.30;99.90;;;;;;5070192;28;19931;-75
2021/11/11 06:16:39;;;;;;;;;;;6.30;99.90;;;;;;5066782;28;19930;-75
2021/11/11 06:19:09;;;;;;;;;;;6.30;99.90;;;;;;5069267;28;19928;-75
2021/11/11 06:21:37;;;;;;;;;;;6.30;99.90;;;;;;5070122;28;20345;-75
2021/11/11 06:24:04;;;;;;;;;;;6.30;99.90;;;;;;5069852;28;19932;-75
2021/11/11 06:26:31;;;;;;;;;;;6.30;99.90;;;;;;5073003;28;19931;-75
2021/11/11 06:28:58;;;;;;;;;;;6.30;99.90;;;;;;5073481;28;19982;-75
2021/11/11 06:31:24;;;;;;;;;;;6.30;99.90;;;;;;5070147;28;19924;-75
2021/11/11 06:33:51;;;;;;;;;;;6.40;99.90;;;;;;5073157;28;20007;-75
2021/11/11 06:36:19;;;;;;;;;;;6.30;99.90;;;;;;5074528;28;20397;-76
2021/11/11 06:38:46;;;;;;;;;;;6.40;99.90;;;;;;5069568;28;19932;-75
2021/11/11 06:41:13;;;;;;;;;;;6.40;99.90;;;;;;5072398;28;19925;-75
2021/11/11 06:43:40;;;;;;;;;;;6.40;99.90;;;;;;5070085;28;19924;-75
2021/11/11 06:46:07;;;;;;;;;;;6.40;99.90;;;;;;5075205;28;20410;-74
2021/11/11 06:48:34;;;;;;;;;;;6.30;99.90;;;;;;5071724;28;19954;-75
2021/11/11 06:51:01;;;;;;;;;;;6.30;99.90;;;;;;5074692;28;19928;-74
2021/11/11 06:53:29;;;;;;;;;;;6.30;99.90;;;;;;5068094;28;19924;-75
2021/11/11 06:55:55;;;;;;;;;;;6.30;99.90;;;;;;5070761;28;20007;-74
2021/11/11 06:58:23;;;;;;;;;;;6.20;99.90;;;;;;5066789;28;19925;-75
2021/11/11 07:00:50;;;;;;;;;;;6.30;99.90;;;;;;5070880;28;20045;-74
2021/11/11 07:03:16;;;;;;;;;;;6.30;99.90;;;;;;5070679;28;20466;-75
2021/11/11 07:05:44;;;;;;;;;;;6.30;99.90;;;;;;5069255;28;19925;-74
2021/11/11 07:08:13;;;;;;;;;;;6.30;99.90;;;;;;5067423;28;19955;-75
2021/11/11 07:10:41;;;;;;;;;;;6.30;99.90;;;;;;5071944;28;19964;-74
2021/11/11 07:13:08;;;;;;;;;;;6.30;99.90;;;;;;5067082;28;19924;-74
2021/11/11 07:15:35;;;;;;;;;;;6.30;99.90;;;;;;5068641;28;19924;-75
2021/11/11 07:18:02;;;;;;;;;;;6.30;99.90;;;;;;5073837;28;19925;-74
2021/11/11 07:20:29;;;;;;;;;;;6.30;99.90;;;;;;5072875;28;19962;-75
2021/11/11 07:22:59;;;;;;;;;;;6.30;99.90;;;;;;5070033;28;19925;-74
2021/11/11 07:25:26;;;;;;;;;;;6.30;99.90;;;;;;5068816;28;19925;-76
2021/11/11 07:27:54;;;;;;;;;;;6.30;99.90;;;;;;5068751;28;19935;-76
2021/11/11 07:30:21;;;;;;;;;;;6.30;99.90;;;;;;5071692;28;19924;-76
2021/11/11 07:32:48;;;;;;;;;;;6.30;99.90;;;;;;5069366;28;19928;-76
2021/11/11 07:35:15;;;;;;;;;;;6.30;99.90;;;;;;5066754;28;19935;-75
2021/11/11 07:37:43;;;;;;;;;;;6.40;99.90;;;;;;5069501;28;19931;-75
2021/11/11 07:40:13;;;;;;;;;;;6.40;99.90;;;;;;5066764;28;19935;-75
2021/11/11 07:42:40;;;;;;;;;;;6.40;99.90;;;;;;5071347;28;19924;-75
2021/11/11 07:45:08;;;;;;;;;;;6.50;99.90;;;;;;5069675;28;19935;-76
2021/11/11 07:47:35;;;;;;;;;;;6.40;99.90;;;;;;5053231;28;19932;-76
2021/11/11 07:50:03;;;;;;;;;;;6.50;99.90;;;;;;5055455;28;20341;-74
2021/11/11 07:52:30;;;;;;;;;;;6.40;99.90;;;;;;5055667;28;21919;-76
2021/11/11 07:54:57;;;;;;;;;;;6.50;99.90;;;;;;5054261;28;19933;-76
2021/11/11 07:57:24;;;;;;;;;;;6.60;99.90;;;;;;5056653;28;20039;-76
2021/11/11 07:59:52;;;;;;;;;;;6.60;99.90;;;;;;5056694;28;19932;-76
2021/11/11 08:02:20;;;;;;;;;;;6.60;99.90;;;;;;5052693;28;20481;-76
2021/11/11 08:04:47;;;;;;;;;;;6.60;99.90;;;;;;5059556;28;19939;-74
2021/11/11 08:07:17;;;;;;;;;;;6.70;99.90;;;;;;5055385;28;20375;-76
2021/11/11 08:09:44;;;;;;;;;;;6.70;99.90;;;;;;5054245;28;19933;-76
2021/11/11 08:12:11;;;;;;;;;;;6.70;99.90;;;;;;5054685;28;19934;-76
2021/11/11 08:14:39;;;;;;;;;;;6.80;99.90;;;;;;5055191;28;20164;-76
2021/11/11 08:17:05;;;;;;;;;;;6.80;99.90;;;;;;5054970;28;20364;-76
2021/11/11 08:19:34;;;;;;;;;;;6.80;99.90;;;;;;5060387;28;19932;-75
2021/11/11 08:22:00;;;;;;;;;;;6.80;99.90;;;;;;5063881;28;20015;-77
2021/11/11 08:24:27;;;;;;;;;;;6.90;99.90;;;;;;5057128;28;20026;-79
2021/11/11 08:26:54;;;;;;;;;;;6.90;99.90;;;;;;5057936;28;19929;-76
2021/11/11 08:29:21;;;;;;;;;;;7.00;99.90;;;;;;5059049;28;19933;-75
2021/11/11 08:31:48;;;;;;;;;;;7.00;99.90;;;;;;5056224;28;19938;-75
2021/11/11 08:34:15;;;;;;;;;;;7.00;99.90;;;;;;5054081;28;19928;-76
2021/11/11 08:36:43;;;;;;;;;;;7.10;99.90;;;;;;5054806;28;19930;-76
2021/11/11 08:39:10;;;;;;;;;;;7.20;99.90;;;;;;5051337;28;19929;-76
2021/11/11 08:41:37;;;;;;;;;;;7.20;99.90;;;;;;5052578;28;19928;-76
2021/11/11 08:44:05;;;;;;;;;;;7.30;99.90;;;;;;5053915;28;19939;-75
2021/11/11 08:46:32;;;;;;;;;;;7.30;99.90;;;;;;5053835;28;19932;-75
2021/11/11 08:49:00;;;;;;;;;;;7.30;99.90;;;;;;5056115;28;19996;-75
2021/11/11 08:51:27;;;;;;;;;;;7.40;99.90;;;;;;5054420;28;19929;-76
2021/11/11 08:53:55;;;;;;;;;;;7.40;99.90;;;;;;5054340;28;19931;-76
2021/11/11 08:56:22;;;;;;;;;;;7.50;99.90;;;;;;5055867;28;20020;-76
2021/11/11 08:58:48;;;;;;;;;;;7.50;99.90;;;;;;5054412;28;19932;-77
2021/11/11 09:01:15;;;;;;;;;;;7.60;99.90;;;;;;5053561;28;19994;-76
2021/11/11 09:03:42;;;;;;;;;;;7.70;99.90;;;;;;5051742;28;19950;-75
2021/11/11 09:06:10;;;;;;;;;;;7.70;99.90;;;;;;5052874;28;21086;-76
2021/11/11 09:08:37;;;;;;;;;;;7.80;99.90;;;;;;5053331;28;19928;-75
2021/11/11 09:11:05;;;;;;;;;;;7.90;99.90;;;;;;5054274;28;20318;-75
2021/11/11 09:13:32;;;;;;;;;;;7.80;99.90;;;;;;5053101;28;19928;-76
2021/11/11 09:16:01;;;;;;;;;;;7.90;99.90;;;;;;5054293;28;19977;-76
2021/11/11 09:18:28;;;;;;;;;;;8.00;99.90;;;;;;5055303;28;20343;-76
2021/11/11 09:20:55;;;;;;;;;;;8.00;99.90;;;;;;5057172;28;19931;-76
2021/11/11 09:23:22;;;;;;;;;;;8.00;99.90;;;;;;5052108;28;20345;-76
2021/11/11 09:25:49;;;;;;;;;;;8.00;99.90;;;;;;5058567;28;20980;-76
2021/11/11 09:28:17;;;;;;;;;;;8.10;99.90;;;;;;5051983;28;19928;-76
2021/11/11 09:30:44;;;;;;;;;;;8.20;99.90;;;;;;5053721;28;19924;-75
2021/11/11 09:33:11;;;;;;;;;;;8.20;99.90;;;;;;5053803;28;19925;-76
2021/11/11 09:35:38;;;;;;;;;;;8.30;99.90;;;;;;5052088;28;20131;-77
2021/11/11 09:38:04;;;;;;;;;;;8.40;99.90;;;;;;5056432;28;19924;-75
2021/11/11 09:40:31;;;;;;;;;;;8.50;99.90;;;;;;5065200;28;19925;-78
2021/11/11 09:42:59;;;;;;;;;;;8.70;99.90;;;;;;5068997;28;19924;-76
2021/11/11 09:45:29;;;;;;;;;;;8.70;99.90;;;;;;5068380;28;19931;-76
2021/11/11 09:47:55;;;;;;;;;;;8.80;99.90;;;;;;5059505;28;20490;-77
2021/11/11 09:50:23;;;;;;;;;;;8.80;99.90;;;;;;5063287;28;20079;-77
2021/11/11 09:52:51;;;;;;;;;;;8.80;99.90;;;;;;5066436;28;20306;-75
2021/11/11 10:00:52;;;;;;;;;;;8.90;99.90;;;;;;5056075;28;19986;-76
2021/11/11 10:03:19;;;;;;;;;;;8.90;99.90;;;;;;5055293;28;19955;-76
2021/11/11 10:05:46;;;;;;;;;;;8.90;99.90;;;;;;5055424;28;19954;-77
2021/11/11 10:08:28;;;;;;;;;;;8.90;99.90;;;;;;5057299;28;20023;-77
2021/11/11 10:10:54;;;;;;;;;;;9.00;99.90;;;;;;5052312;28;20323;-77
2021/11/11 10:13:22;;;;;;;;;;;9.10;99.90;;;;;;5053841;28;20401;-78
2021/11/11 10:16:01;;;;;;;;;;;9.20;99.90;;;;;;5054992;28;19929;-78
2021/11/11 10:18:36;;;;;;;;;;;9.10;99.90;;;;;;5056612;28;22208;-77
2021/11/11 10:21:03;;;;;;;;;;;9.10;99.90;;;;;;5066734;28;20314;-76
2021/11/11 10:23:29;;;;;;;;;;;9.20;99.90;;;;;;5058156;28;19932;-76
2021/11/11 10:26:14;;;;;;;;;;;9.20;99.90;;;;;;5054612;28;19935;-78
2021/11/11 10:28:41;;;;;;;;;;;9.30;99.90;;;;;;5055156;28;19925;-76
2021/11/11 10:31:14;;;;;;;;;;;9.50;99.90;;;;;;5053949;28;19984;-76
2021/11/11 10:33:56;;;;;;;;;;;9.40;99.90;;;;;;5053069;28;20387;-75
2021/11/11 10:36:37;;;;;;;;;;;9.50;99.90;;;;;;5054139;28;20031;-76
2021/11/11 10:39:08;;;;;;;;;;;9.50;99.90;;;;;;5053501;28;19924;-76
2021/11/11 10:41:35;;;;;;;;;;;9.50;99.90;;;;;;5054988;28;19943;-76
2021/11/11 10:44:15;;;;;;;;;;;9.50;99.90;;;;;;5055448;28;19928;-76
2021/11/11 10:46:47;;;;;;;;;;;9.50;99.90;;;;;;5054908;28;19928;-78
2021/11/11 10:49:17;;;;;;;;;;;9.70;99.90;;;;;;5053960;28;19932;-76
2021/11/11 10:51:44;;;;;;;;;;;9.80;99.90;;;;;;5055824;28;20396;-76
2021/11/11 10:54:11;;;;;;;;;;;9.90;99.90;;;;;;5055934;28;19938;-77
2021/11/11 10:56:41;;;;;;;;;;;9.90;99.90;;;;;;5051925;28;20508;-76
2021/11/11 10:59:10;;;;;;;;;;;9.90;99.90;;;;;;5054809;28;19925;-77
2021/11/11 11:01:37;;;;;;;;;;;10.00;99.90;;;;;;5062728;28;19925;-76
2021/11/11 11:04:05;;;;;;;;;;;10.10;99.90;;;;;;5058784;28;19924;-76
2021/11/11 11:06:34;;;;;;;;;;;10.10;99.90;;;;;;5059618;28;19931;-77
2021/11/11 11:09:02;;;;;;;;;;;10.20;99.90;;;;;;5058105;28;19929;-76
2021/11/11 11:11:30;;;;;;;;;;;10.30;99.90;;;;;;5059970;28;19968;-77
2021/11/11 11:13:58;;;;;;;;;;;10.40;99.90;;;;;;5061733;28;19925;-78
2021/11/11 11:16:25;;;;;;;;;;;10.40;99.90;;;;;;5061577;28;19932;-75
2021/11/11 11:18:55;;;;;;;;;;;10.50;99.90;;;;;;5063300;28;20392;-76
2021/11/11 11:21:24;;;;;;;;;;;10.50;99.90;;;;;;5067592;28;19929;-76
2021/11/11 11:23:51;;;;;;;;;;;10.60;99.90;;;;;;5066052;28;20047;-76
2021/11/11 11:26:19;;;;;;;;;;;10.50;99.90;;;;;;5065470;28;19939;-76
2021/11/11 11:28:56;;;;;;;;;;;10.60;99.90;;;;;;5055745;28;19925;-76
2021/11/11 11:31:28;;;;;;;;;;;10.60;99.90;;;;;;5056608;28;20462;-77
2021/11/11 11:33:56;;;;;;;;;;;10.60;99.90;;;;;;5059619;28;20051;-77
2021/11/11 11:36:35;;;;;;;;;;;10.50;99.90;;;;;;5063499;28;20307;-76
2021/11/11 11:39:02;;;;;;;;;;;10.50;99.90;;;;;;5065080;28;19924;-76
2021/11/11 11:41:31;;;;;;;;;;;10.50;99.90;;;;;;5068822;28;19925;-76
2021/11/11 11:44:15;;;;;;;;;;;10.60;99.90;;;;;;5065353;28;19928;-75
2021/11/11 11:46:42;;;;;;;;;;;10.70;99.90;;;;;;5067824;28;19931;-76
2021/11/11 11:49:09;;;;;;;;;;;10.60;99.90;;;;;;5066155;28;19931;-76
2021/11/11 11:51:37;;;;;;;;;;;10.80;99.90;;;;;;5070023;28;19924;-76
2021/11/11 11:54:10;;;;;;;;;;;10.80;99.90;;;;;;5064626;28;20007;-77
2021/11/11 11:56:43;;;;;;;;;;;11.00;99.90;;;;;;5069932;28;19925;-76
2021/11/11 11:59:13;;;;;;;;;;;11.00;99.90;;;;;;5067257;28;19928;-75
2021/11/11 12:02:02;;;;;;;;;;;11.10;99.90;;;;;;5070612;28;19986;-76
2021/11/11 12:04:46;;;;;;;;;;;11.10;99.90;;;;;;5061926;28;19986;-76
2021/11/11 12:07:26;;;;;;;;;;;11.20;99.90;;;;;;5069020;28;19978;-78
2021/11/11 12:09:59;;;;;;;;;;;11.10;99.90;;;;;;5061979;28;19928;-75
2021/11/11 12:15:16;;;;;;;;;;;11.20;99.90;;;;;;5064908;28;19924;-75
2021/11/11 12:18:09;;;;;;;;;;;11.20;99.90;;;;;;5065725;28;20035;-75
2021/11/11 12:40:21;;;;;;;;;;;11.60;99.90;;;;;;5066877;28;19931;-77
2021/11/11 12:42:53;;;;;;;;;;;11.70;99.90;;;;;;5068254;28;19931;-75
2021/11/11 12:45:21;;;;;;;;;;;11.70;99.90;;;;;;5064385;28;19926;-75
2021/11/11 12:47:49;;;;;;;;;;;11.60;99.80;;;;;;5062685;28;19931;-77
2021/11/11 12:50:26;;;;;;;;;;;11.60;99.90;;;;;;5067195;28;20395;-75
2021/11/11 12:53:08;;;;;;;;;;;11.70;99.90;;;;;;5069277;28;19939;-75
2021/11/11 12:55:36;;;;;;;;;;;11.70;99.50;;;;;;5067151;28;19924;-76
2021/11/11 12:58:04;;;;;;;;;;;11.60;99.50;;;;;;5065334;28;20030;-75
2021/11/11 13:00:33;;;;;;;;;;;11.50;99.70;;;;;;5068282;28;19931;-76
2021/11/11 13:03:00;;;;;;;;;;;11.50;99.60;;;;;;5070525;28;19925;-79
2021/11/11 13:05:42;;;;;;;;;;;11.50;99.30;;;;;;5068841;28;19932;-79
2021/11/11 13:08:09;;;;;;;;;;;11.50;99.30;;;;;;5064993;28;20445;-75
2021/11/11 13:10:52;;;;;;;;;;;11.60;99.40;;;;;;5066909;28;19932;-76
2021/11/11 13:13:23;;;;;;;;;;;11.80;99.00;;;;;;5066976;28;19947;-76
2021/11/11 13:15:50;;;;;;;;;;;11.90;99.10;;;;;;5065848;28;20432;-76
2021/11/11 13:18:32;;;;;;;;;;;11.90;98.40;;;;;;5066964;28;19978;-75
2021/11/11 13:21:08;;;;;;;;;;;11.80;98.90;;;;;;5066530;28;20027;-75
2021/11/11 13:23:41;;;;;;;;;;;11.90;98.70;;;;;;5066074;28;20019;-76
2021/11/11 13:54:29;;;;;;;;;;;11.30;99.10;;;;;;5066847;28;19931;-76
2021/11/11 15:17:40;;;;;;;;;;;10.80;99.90;;;;;;5064597;28;19928;-77
2021/11/11 16:02:02;;;;;;;;;;;10.30;99.90;;;;;;5057303;28;19954;-77
2021/11/11 16:21:07;;;;;;;;;;;10.10;99.90;;;;;;4997360;28;19990;-75
2021/11/11 16:23:47;;;;;;;;;;;10.10;99.90;;;;;;5053124;28;20314;-76
2021/11/11 16:26:16;;;;;;;;;;;10.00;99.90;;;;;;5067776;28;19933;-75
2021/11/11 16:28:46;;;;;;;;;;;10.10;99.90;;;;;;5061229;28;19932;-76
2021/11/11 16:31:14;;;;;;;;;;;10.00;99.90;;;;;;5066663;28;20019;-76
2021/11/11 16:33:41;;;;;;;;;;;10.00;99.90;;;;;;5056818;28;19924;-76
2021/11/11 16:36:07;;;;;;;;;;;10.00;99.90;;;;;;5067896;28;19924;-75
2021/11/11 16:38:35;;;;;;;;;;;10.00;99.90;;;;;;5069580;28;20353;-76
2021/11/11 16:41:02;;;;;;;;;;;10.00;99.90;;;;;;5067877;28;19928;-75
2021/11/11 16:43:28;;;;;;;;;;;10.00;99.90;;;;;;5063656;28;20298;-75
2021/11/11 16:45:57;;;;;;;;;;;10.00;99.90;;;;;;5065420;28;19933;-76
2021/11/11 16:48:24;;;;;;;;;;;9.90;99.90;;;;;;5056860;28;19925;-75
2021/11/11 16:50:51;;;;;;;;;;;9.90;99.90;;;;;;5060685;28;19925;-75
2021/11/11 16:53:18;;;;;;;;;;;9.90;99.90;;;;;;5063462;28;19924;-75
2021/11/11 16:55:45;;;;;;;;;;;9.90;99.90;;;;;;5062638;28;19924;-76
2021/11/11 16:58:12;;;;;;;;;;;9.80;99.90;;;;;;5064580;28;20017;-76
2021/11/11 17:00:42;;;;;;;;;;;9.80;99.90;;;;;;5063861;28;19924;-76
2021/11/11 17:03:12;;;;;;;;;;;9.80;99.90;;;;;;5062660;28;20508;-76
2021/11/11 17:05:38;;;;;;;;;;;9.80;99.90;;;;;;5062788;28;20463;-77
2021/11/11 17:08:07;;;;;;;;;;;9.80;99.90;;;;;;5064661;28;19925;-79
2021/11/11 17:10:34;;;;;;;;;;;9.80;99.90;;;;;;5064382;28;20543;-75
2021/11/11 17:13:03;;;;;;;;;;;9.70;99.90;;;;;;5065499;28;20022;-78
2021/11/11 17:15:34;;;;;;;;;;;9.70;99.90;;;;;;5056415;28;19946;-80
2021/11/11 17:18:02;;;;;;;;;;;9.70;99.90;;;;;;5060619;28;19928;-78
2021/11/11 17:20:31;;;;;;;;;;;9.70;99.90;;;;;;5060823;28;20219;-80
2021/11/11 17:23:02;;;;;;;;;;;9.70;99.90;;;;;;5067558;28;19924;-77
2021/11/11 17:25:34;;;;;;;;;;;9.70;99.90;;;;;;5063853;28;19928;-76
2021/11/11 17:28:13;;;;;;;;;;;9.70;99.90;;;;;;5064309;28;20003;-76
2021/11/11 17:30:41;;;;;;;;;;;9.70;99.90;;;;;;5063843;28;19924;-76
2021/11/11 17:33:08;;;;;;;;;;;9.70;99.90;;;;;;5065620;28;19931;-77
2021/11/11 17:35:36;;;;;;;;;;;9.70;99.90;;;;;;5064940;28;19931;-77
2021/11/11 17:38:03;;;;;;;;;;;9.70;99.90;;;;;;5068324;28;19929;-75
2021/11/11 17:40:30;;;;;;;;;;;9.60;99.90;;;;;;5063673;28;20293;-78
2021/11/11 17:43:00;;;;;;;;;;;9.60;99.90;;;;;;5061366;28;20343;-79
2021/11/11 17:45:29;;;;;;;;;;;9.60;99.90;;;;;;5063359;28;20355;-76
2021/11/11 17:47:57;;;;;;;;;;;9.60;99.90;;;;;;5063242;28;19940;-77
2021/11/11 17:50:29;;;;;;;;;;;9.60;99.90;;;;;;5060584;28;19929;-76
2021/11/11 17:53:05;;;;;;;;;;;9.60;99.90;;;;;;5066861;28;19924;-76
2021/11/11 17:55:36;;;;;;;;;;;9.60;99.90;;;;;;5060303;28;19925;-76
2021/11/11 17:58:04;;;;;;;;;;;9.60;99.90;;;;;;5053295;28;19924;-76
2021/11/11 18:00:32;;;;;;;;;;;9.50;99.90;;;;;;5049240;28;20379;-76
2021/11/11 18:02:59;;;;;;;;;;;9.50;99.90;;;;;;5062699;28;19924;-76